createdAt,value
2023-01-19T00:00:59.608Z,90026.09
2023-01-19T00:03:29.717Z,90029.59
2023-01-19T00:05:56.676Z,90033.41
2023-01-19T00:08:23.540Z,90031.56
2023-01-19T00:10:51.039Z,90027.44
2023-01-19T00:13:18.147Z,90033.34
2023-01-19T00:15:45.291Z,90045.97
2023-01-19T00:18:12.148Z,90033.88
2023-01-19T00:20:39.997Z,90034.22
2023-01-19T00:23:07.463Z,90037.22
2023-01-19T00:25:34.787Z,90037.16
2023-01-19T00:28:01.995Z,90036.72
2023-01-19T00:30:29.401Z,90038.84
2023-01-19T00:32:56.472Z,90039.38
2023-01-19T00:35:23.383Z,90038.56
2023-01-19T00:37:50.422Z,90043.84
2023-01-19T00:40:17.958Z,90048.31
2023-01-19T00:42:44.904Z,90045.69
2023-01-19T00:45:14.783Z,90050.75
2023-01-19T00:47:42.503Z,90034.41
2023-01-19T00:50:11.592Z,90030.38
2023-01-19T00:52:39.936Z,90029.19
2023-01-19T00:55:12.278Z,90034.72
2023-01-19T00:57:39.771Z,90028.13
2023-01-19T01:00:09.882Z,90027.25
2023-01-19T01:02:37.012Z,90038.09
2023-01-19T01:05:05.070Z,90032.19
2023-01-19T01:07:33.742Z,90047.72
2023-01-19T01:10:01.045Z,90041.47
2023-01-19T01:12:28.004Z,90035.47
2023-01-19T01:14:54.859Z,90039.69
2023-01-19T01:17:21.740Z,90034.66
2023-01-19T01:19:48.682Z,90046.91
2023-01-19T01:22:15.703Z,90044.47
2023-01-19T01:24:42.665Z,90035.25
2023-01-19T01:27:09.569Z,90033.69
2023-01-19T01:29:36.458Z,90047.31
2023-01-19T01:32:06.102Z,90034.81
2023-01-19T01:34:33.037Z,90035.34
2023-01-19T01:36:59.882Z,90030.91
2023-01-19T01:39:29.459Z,90028.41
2023-01-19T01:41:56.318Z,90037.91
2023-01-19T01:44:50.621Z,90030.38
2023-01-19T01:47:39.888Z,90032.19
2023-01-19T01:50:09.479Z,90026.69
2023-01-19T01:52:42.927Z,90030.88
2023-01-19T01:55:32.614Z,90033.63
2023-01-19T01:58:04.144Z,90036.03
2023-01-19T02:00:31.675Z,90038.88
2023-01-19T02:02:58.983Z,90038.81
2023-01-19T02:05:33.467Z,90040.72
2023-01-19T02:08:16.961Z,90042.63
2023-01-19T02:10:44.599Z,90035.53
2023-01-19T02:13:12.888Z,90036.56
2023-01-19T02:15:39.770Z,90041.84
2023-01-19T02:18:06.751Z,90045.47
2023-01-19T02:20:36.866Z,90041.13
2023-01-19T02:23:13.554Z,90045.34
2023-01-19T02:25:40.498Z,90043.63
2023-01-19T02:28:08.079Z,90039.31
2023-01-19T02:30:38.177Z,90039.13
2023-01-19T02:33:05.217Z,90038.81
2023-01-19T02:35:32.999Z,90031.72
2023-01-19T02:38:01.452Z,90031.63
2023-01-19T02:40:28.793Z,90032.03
2023-01-19T02:42:59.649Z,90032.91
2023-01-19T02:45:27.524Z,90036.16
2023-01-19T02:47:54.967Z,90037.94
2023-01-19T02:51:00.034Z,90042.81
2023-01-19T02:53:32.806Z,90039.31
2023-01-19T02:56:23.681Z,90039.56
2023-01-19T02:59:01.592Z,90044.75
2023-01-19T03:01:56.421Z,90048.03
2023-01-19T03:04:41.662Z,90048.47
2023-01-19T03:07:11.731Z,90050.13
2023-01-19T03:09:49.861Z,90052.22
2023-01-19T03:12:25.837Z,90050.00
2023-01-19T03:14:55.947Z,90046.41
2023-01-19T03:17:23.096Z,90054.22
2023-01-19T03:19:52.993Z,90058.38
2023-01-19T03:22:25.291Z,90058.03
2023-01-19T03:24:54.724Z,90052.66
2023-01-19T03:27:29.429Z,90057.56
2023-01-19T03:30:01.138Z,90065.72
2023-01-19T03:32:57.069Z,90064.16
2023-01-19T03:35:26.715Z,90073.44
2023-01-19T03:37:56.675Z,90078.38
2023-01-19T03:40:27.154Z,90081.03
2023-01-19T03:42:54.934Z,90083.69
2023-01-19T03:45:23.111Z,90087.47
2023-01-19T03:47:50.396Z,90094.53
2023-01-19T03:50:35.613Z,90094.59
2023-01-19T03:53:07.207Z,90089.31
2023-01-19T03:55:36.201Z,90096.06
2023-01-19T03:58:03.014Z,90103.78
2023-01-19T04:00:29.908Z,90092.06
2023-01-19T04:02:56.967Z,90095.06
2023-01-19T04:05:24.401Z,90098.88
2023-01-19T04:07:53.698Z,90091.06
2023-01-19T04:10:21.290Z,90108.25
2023-01-19T04:12:49.021Z,90105.13
2023-01-19T04:15:16.587Z,90112.63
2023-01-19T04:17:43.551Z,90115.16
2023-01-19T04:20:10.952Z,90102.66
2023-01-19T04:22:37.796Z,90112.31
2023-01-19T04:25:05.341Z,90118.69
2023-01-19T04:27:32.360Z,90125.78
2023-01-19T04:29:59.272Z,90129.38
2023-01-19T04:32:26.429Z,90131.38
2023-01-19T04:34:53.382Z,90140.28
2023-01-19T04:37:20.248Z,90145.75
2023-01-19T04:39:47.148Z,90145.53
2023-01-19T04:42:14.086Z,90148.41
2023-01-19T04:44:40.908Z,90139.28
2023-01-19T04:47:07.881Z,90146.66
2023-01-19T04:49:34.827Z,90142.06
2023-01-19T04:52:01.701Z,90148.13
2023-01-19T04:54:28.687Z,90143.16
2023-01-19T04:56:55.574Z,90143.22
2023-01-19T04:59:22.511Z,90146.34
2023-01-19T05:01:49.467Z,90149.44
2023-01-19T05:04:16.619Z,90140.22
2023-01-19T05:06:43.545Z,90144.81
2023-01-19T05:09:11.910Z,90142.81
2023-01-19T05:11:39.010Z,90149.38
2023-01-19T05:14:06.065Z,90143.94
2023-01-19T05:16:33.934Z,90154.50
2023-01-19T05:19:01.029Z,90152.19
2023-01-19T05:21:28.011Z,90150.31
2023-01-19T05:23:54.867Z,90153.59
2023-01-19T05:26:21.898Z,90151.78
2023-01-19T05:28:48.842Z,90148.38
2023-01-19T05:31:18.676Z,90152.91
2023-01-19T05:33:46.455Z,90151.13
2023-01-19T05:36:13.288Z,90156.22
2023-01-19T05:38:40.185Z,90151.03
2023-01-19T05:41:07.088Z,90148.59
2023-01-19T05:43:33.989Z,90149.09
2023-01-19T05:46:01.056Z,90149.09
2023-01-19T05:48:28.036Z,90149.97
2023-01-19T05:50:58.620Z,90158.72
2023-01-19T05:53:25.582Z,90160.84
2023-01-19T05:55:52.591Z,90167.56
2023-01-19T05:58:19.542Z,90171.66
2023-01-19T06:00:46.387Z,90170.91
2023-01-19T06:03:13.307Z,90174.31
2023-01-19T06:05:40.283Z,90174.63
2023-01-19T06:08:07.215Z,90169.34
2023-01-19T06:10:34.074Z,90170.50
2023-01-19T06:13:01.194Z,90159.28
2023-01-19T06:15:28.432Z,90168.00
2023-01-19T06:17:55.308Z,90167.78
2023-01-19T06:20:22.270Z,90163.25
2023-01-19T06:22:49.350Z,90150.19
2023-01-19T06:25:16.238Z,90152.50
2023-01-19T06:27:45.871Z,90152.16
2023-01-19T06:30:13.748Z,90159.75
2023-01-19T06:32:40.624Z,90172.25
2023-01-19T06:35:07.736Z,90172.16
2023-01-19T06:37:34.921Z,90173.97
2023-01-19T06:40:01.929Z,90177.47
2023-01-19T06:42:28.886Z,90176.50
2023-01-19T06:44:55.903Z,90176.97
2023-01-19T06:47:22.877Z,90178.56
2023-01-19T06:49:49.805Z,90189.59
2023-01-19T06:52:17.106Z,90190.41
2023-01-19T06:54:47.360Z,90178.25
2023-01-19T06:57:14.942Z,90183.31
2023-01-19T06:59:41.997Z,90180.22
2023-01-19T07:02:26.441Z,90176.00
2023-01-19T07:04:56.335Z,90182.34
2023-01-19T07:07:23.323Z,90187.22
2023-01-19T07:09:50.192Z,90184.03
2023-01-19T07:12:21.075Z,90176.44
2023-01-19T07:14:50.237Z,90186.34
2023-01-19T07:17:17.490Z,90187.94
2023-01-19T07:19:44.620Z,90190.03
2023-01-19T07:22:11.554Z,90178.84
2023-01-19T07:24:38.432Z,90179.06
2023-01-19T07:27:05.351Z,90193.44
2023-01-19T07:29:32.308Z,90190.78
2023-01-19T07:31:59.222Z,90194.19
2023-01-19T07:34:26.044Z,90197.47
2023-01-19T07:36:52.943Z,90192.56
2023-01-19T07:39:19.771Z,90194.13
2023-01-19T07:41:48.548Z,90193.34
2023-01-19T07:44:15.717Z,90192.91
2023-01-19T07:46:42.620Z,90202.53
2023-01-19T07:49:09.647Z,90202.16
2023-01-19T07:51:36.691Z,90188.16
2023-01-19T07:54:03.616Z,90195.69
2023-01-19T07:56:32.614Z,90197.47
2023-01-19T07:58:59.772Z,90191.56
2023-01-19T08:01:26.665Z,90198.09
2023-01-19T08:03:53.642Z,90196.06
2023-01-19T08:06:23.596Z,90192.22
2023-01-19T08:08:50.953Z,90196.09
2023-01-19T08:11:17.931Z,90191.69
2023-01-19T08:13:44.797Z,90185.91
2023-01-19T08:16:11.804Z,90194.09
2023-01-19T08:18:38.696Z,90198.13
2023-01-19T08:21:06.250Z,90192.63
2023-01-19T08:23:33.177Z,90189.03
2023-01-19T08:26:00.143Z,90190.06
2023-01-19T08:28:27.149Z,90195.13
2023-01-19T08:30:54.291Z,90192.47
2023-01-19T08:33:22.992Z,90191.63
2023-01-19T08:35:52.927Z,90200.72
2023-01-19T08:38:19.975Z,90193.66
2023-01-19T08:40:47.128Z,90192.09
2023-01-19T08:43:16.291Z,90186.50
2023-01-19T08:45:46.675Z,90203.63
2023-01-19T08:48:13.906Z,90191.09
2023-01-19T08:50:41.044Z,90193.16
2023-01-19T08:53:08.407Z,90186.09
2023-01-19T08:55:37.066Z,90188.16
2023-01-19T08:58:05.063Z,90187.84
2023-01-19T09:00:34.083Z,90179.13
2023-01-19T09:03:02.319Z,90179.44
2023-01-19T09:05:30.556Z,90182.63
2023-01-19T09:07:57.471Z,90174.56
2023-01-19T09:10:25.033Z,90175.31
2023-01-19T09:12:51.910Z,90171.16
2023-01-19T09:15:20.208Z,90169.22
2023-01-19T09:17:47.064Z,90175.94
2023-01-19T09:20:14.090Z,90174.41
2023-01-19T09:22:40.957Z,90164.66
2023-01-19T09:25:08.411Z,90172.78
2023-01-19T09:27:35.578Z,90160.47
2023-01-19T09:30:03.860Z,90170.22
2023-01-19T09:32:30.786Z,90157.28
2023-01-19T09:34:57.759Z,90162.31
2023-01-19T09:37:24.658Z,90156.13
2023-01-19T09:39:51.635Z,90159.06
2023-01-19T09:42:31.369Z,90154.34
2023-01-19T09:44:58.960Z,90143.38
2023-01-19T09:47:29.896Z,90135.03
2023-01-19T09:50:05.357Z,90133.25
2023-01-19T09:52:36.443Z,90133.03
2023-01-19T09:55:03.558Z,90130.78
2023-01-19T09:57:31.310Z,90122.69
2023-01-19T09:59:58.404Z,90122.66
2023-01-19T10:02:39.534Z,90112.25
2023-01-19T10:05:32.552Z,90105.69
2023-01-19T10:08:14.543Z,90101.84
2023-01-19T10:10:47.308Z,90093.00
2023-01-19T10:13:35.819Z,90090.63
2023-01-19T10:16:14.780Z,90093.56
2023-01-19T10:18:46.871Z,90092.63
2023-01-19T10:21:19.355Z,90089.84
2023-01-19T10:24:13.497Z,90082.59
2023-01-19T10:26:45.828Z,90083.03
2023-01-19T10:29:39.099Z,90076.06
2023-01-19T10:32:12.220Z,90081.50
2023-01-19T10:34:39.403Z,90069.94
2023-01-19T10:37:22.944Z,90072.09
2023-01-19T10:39:55.602Z,90064.22
2023-01-19T10:42:22.884Z,90062.06
2023-01-19T10:44:50.031Z,90057.25
2023-01-19T10:47:19.452Z,90044.31
2023-01-19T10:49:48.315Z,90045.78
2023-01-19T10:52:36.230Z,90051.81
2023-01-19T10:55:06.119Z,90043.47
2023-01-19T10:57:40.933Z,90047.22
2023-01-19T11:00:38.307Z,90035.38
2023-01-19T11:03:24.876Z,90034.34
2023-01-19T11:05:52.076Z,90029.56
2023-01-19T11:08:30.058Z,90034.69
2023-01-19T11:11:03.401Z,90034.50
2023-01-19T11:13:30.811Z,90027.69
2023-01-19T11:16:14.403Z,90023.09
2023-01-19T11:18:42.818Z,90019.69
2023-01-19T11:21:13.461Z,90025.69
2023-01-19T11:23:52.790Z,90016.81
2023-01-19T11:26:40.054Z,90023.34
2023-01-19T11:29:23.339Z,90021.25
2023-01-19T11:31:51.745Z,90025.03
2023-01-19T11:34:26.616Z,90023.34
2023-01-19T11:37:23.850Z,90022.44
2023-01-19T11:39:53.274Z,90018.44
2023-01-19T11:42:20.833Z,90012.38
2023-01-19T11:45:13.641Z,90011.34
2023-01-19T11:47:44.459Z,90009.13
2023-01-19T11:50:14.025Z,90011.28
2023-01-19T11:52:50.998Z,90014.00
2023-01-19T11:55:42.522Z,90012.81
2023-01-19T11:58:15.961Z,90013.22
2023-01-19T12:01:17.800Z,90016.34
2023-01-19T12:03:49.224Z,90018.47
2023-01-19T12:06:20.678Z,90014.25
2023-01-19T12:08:53.785Z,90015.72
2023-01-19T12:11:30.130Z,90016.91
2023-01-19T12:13:57.480Z,90012.94
2023-01-19T12:16:29.066Z,90006.75
2023-01-19T12:19:00.613Z,90012.22
2023-01-19T12:21:27.649Z,90012.94
2023-01-19T12:24:15.952Z,90018.25
2023-01-19T12:26:51.470Z,90015.03
2023-01-19T12:29:21.543Z,90012.66
2023-01-19T12:32:27.038Z,90013.00
2023-01-19T12:34:53.939Z,90013.81
2023-01-19T12:37:43.098Z,90012.28
2023-01-19T12:40:27.045Z,90018.75
2023-01-19T12:43:06.028Z,90007.94
2023-01-19T12:45:37.567Z,89998.94
2023-01-19T12:48:05.593Z,90007.28
2023-01-19T12:50:39.106Z,90003.59
2023-01-19T12:53:18.171Z,90004.28
2023-01-19T12:55:45.734Z,90001.66
2023-01-19T12:58:24.820Z,90006.56
2023-01-19T13:01:19.211Z,90007.34
2023-01-19T13:04:02.085Z,90010.28
2023-01-19T13:06:47.397Z,90015.56
2023-01-19T13:09:32.000Z,90008.94
2023-01-19T13:12:15.757Z,90007.31
2023-01-19T13:14:43.617Z,90009.00
2023-01-19T13:17:33.449Z,90007.94
2023-01-19T13:20:05.151Z,90001.75
2023-01-19T13:22:47.074Z,90005.75
2023-01-19T13:25:27.903Z,89999.59
2023-01-19T13:27:55.277Z,90003.09
2023-01-19T13:30:26.286Z,90006.22
2023-01-19T13:32:56.997Z,90004.47
2023-01-19T13:35:24.843Z,90005.63
2023-01-19T13:37:52.491Z,90010.34
2023-01-19T13:40:26.437Z,89999.00
2023-01-19T13:42:54.675Z,89997.00
2023-01-19T13:45:34.260Z,89993.63
2023-01-19T13:48:05.536Z,89994.81
2023-01-19T13:50:36.979Z,90001.34
2023-01-19T13:53:04.020Z,89997.84
2023-01-19T13:55:32.207Z,90002.00
2023-01-19T13:57:59.189Z,90011.00
2023-01-19T14:00:29.284Z,90009.34
2023-01-19T14:03:17.061Z,90000.00
2023-01-19T14:05:45.041Z,89995.22
2023-01-19T14:08:15.705Z,89987.72
2023-01-19T14:10:54.889Z,89996.13
2023-01-19T14:13:24.215Z,89995.78
2023-01-19T14:15:56.140Z,89999.09
2023-01-19T14:18:26.995Z,90001.66
2023-01-19T14:21:04.591Z,90002.84
2023-01-19T14:23:54.566Z,90002.75
2023-01-19T14:27:08.391Z,89999.38
2023-01-19T14:29:36.778Z,90005.69
2023-01-19T14:32:03.649Z,89996.13
2023-01-19T14:34:55.447Z,89996.50
2023-01-19T14:37:28.652Z,89989.66
2023-01-19T14:40:01.147Z,89996.66
2023-01-19T14:42:32.579Z,90002.94
2023-01-19T14:45:02.300Z,89993.16
2023-01-19T14:47:38.713Z,90000.00
2023-01-19T14:50:23.384Z,90004.44
2023-01-19T14:52:57.851Z,90001.50
2023-01-19T14:55:33.995Z,89998.16
2023-01-19T14:58:01.164Z,90003.03
2023-01-19T15:00:28.734Z,90005.06
2023-01-19T15:02:55.654Z,89994.66
2023-01-19T15:05:23.537Z,89995.31
2023-01-19T15:07:50.471Z,89998.50
2023-01-19T15:10:22.122Z,89999.59
2023-01-19T15:12:51.342Z,90004.56
2023-01-19T15:15:41.026Z,90007.53
2023-01-19T15:18:15.476Z,90006.34
2023-01-19T15:20:42.376Z,90004.78
2023-01-19T15:23:12.583Z,90018.00
2023-01-19T15:25:40.041Z,90020.19
2023-01-19T15:28:13.258Z,90025.56
2023-01-19T15:30:40.353Z,90018.53
2023-01-19T15:33:12.682Z,90014.94
2023-01-19T15:35:39.552Z,90021.34
2023-01-19T15:38:06.440Z,90017.94
2023-01-19T15:40:33.355Z,90016.25
2023-01-19T15:43:00.220Z,90017.41
2023-01-19T15:45:38.178Z,90025.31
2023-01-19T15:48:07.982Z,90018.03
2023-01-19T15:50:47.497Z,90021.84
2023-01-19T15:53:19.411Z,90018.25
2023-01-19T15:55:53.065Z,90013.13
2023-01-19T15:58:20.032Z,90013.13
2023-01-19T16:00:54.714Z,90021.09
2023-01-19T16:03:21.966Z,90016.41
2023-01-19T16:05:49.065Z,90009.84
2023-01-19T16:08:16.100Z,90012.66
2023-01-19T16:10:43.422Z,90022.75
2023-01-19T16:13:11.794Z,90013.44
2023-01-19T16:15:40.238Z,90013.44
2023-01-19T16:18:07.226Z,90015.84
2023-01-19T16:20:34.486Z,90023.81
2023-01-19T16:23:16.518Z,90020.75
2023-01-19T16:25:43.639Z,90023.91
2023-01-19T16:28:10.562Z,90023.31
2023-01-19T16:30:37.523Z,90024.06
2023-01-19T16:33:04.484Z,90033.72
2023-01-19T16:35:31.517Z,90031.09
2023-01-19T16:37:58.347Z,90035.50
2023-01-19T16:40:26.477Z,90028.81
2023-01-19T16:42:53.306Z,90019.13
2023-01-19T16:45:20.249Z,90019.88
2023-01-19T16:47:47.176Z,90016.94
2023-01-19T16:50:13.987Z,90018.25
2023-01-19T16:52:40.969Z,90024.44
2023-01-19T16:55:14.592Z,90024.44
2023-01-19T16:57:41.770Z,90020.91
2023-01-19T17:00:09.918Z,90022.06
2023-01-19T17:02:37.157Z,90021.03
2023-01-19T17:05:04.691Z,90026.94
2023-01-19T17:07:34.204Z,90025.03
2023-01-19T17:10:01.187Z,90023.41
2023-01-19T17:13:01.275Z,90025.00
2023-01-19T17:15:28.421Z,90020.75
2023-01-19T17:17:55.239Z,90014.72
2023-01-19T17:20:22.142Z,90014.41
2023-01-19T17:22:52.152Z,90008.53
2023-01-19T17:25:19.195Z,90017.06
2023-01-19T17:27:49.173Z,90019.72
2023-01-19T17:30:16.571Z,90020.59
2023-01-19T17:32:43.615Z,90025.00
2023-01-19T17:35:10.709Z,90027.09
2023-01-19T17:37:37.617Z,90021.34
2023-01-19T17:40:04.845Z,90018.09
2023-01-19T17:42:31.816Z,90016.19
2023-01-19T17:45:01.625Z,90017.78
2023-01-19T17:47:28.574Z,90012.91
2023-01-19T17:49:55.721Z,90016.16
2023-01-19T17:52:22.802Z,90015.56
2023-01-19T17:54:49.701Z,90025.13
2023-01-19T17:57:18.895Z,90017.63
2023-01-19T17:59:46.860Z,90012.31
2023-01-19T18:02:14.213Z,90007.13
2023-01-19T18:04:44.056Z,90012.59
2023-01-19T18:07:10.911Z,90022.19
2023-01-19T18:09:37.797Z,90009.53
2023-01-19T18:12:04.927Z,90002.03
2023-01-19T18:14:31.851Z,90001.75
2023-01-19T18:16:58.809Z,90008.22
2023-01-19T18:19:25.755Z,90003.22
2023-01-19T18:21:52.668Z,90009.69
2023-01-19T18:24:19.770Z,90005.88
2023-01-19T18:26:46.637Z,90003.78
2023-01-19T18:29:16.253Z,90000.41
2023-01-19T18:31:43.528Z,89998.94
2023-01-19T18:34:10.570Z,89983.63
2023-01-19T18:36:37.495Z,89988.50
2023-01-19T18:39:04.655Z,89989.66
2023-01-19T18:41:31.528Z,89983.03
2023-01-19T18:44:01.541Z,89984.94
2023-01-19T18:46:28.635Z,89987.88
2023-01-19T18:48:55.645Z,89989.22
2023-01-19T18:51:22.689Z,89988.78
2023-01-19T18:53:49.726Z,89987.31
2023-01-19T18:56:16.858Z,89995.25
2023-01-19T18:58:46.981Z,89985.56
2023-01-19T19:01:23.926Z,89996.88
2023-01-19T19:03:52.038Z,89991.88
2023-01-19T19:06:19.280Z,89993.13
2023-01-19T19:08:46.950Z,90006.19
2023-01-19T19:11:14.284Z,90003.41
2023-01-19T19:13:41.670Z,90003.97
2023-01-19T19:16:11.440Z,90001.75
2023-01-19T19:18:39.431Z,89990.28
2023-01-19T19:21:11.570Z,89987.78
2023-01-19T19:23:39.058Z,89990.16
2023-01-19T19:26:10.820Z,89995.28
2023-01-19T19:28:39.668Z,89995.84
2023-01-19T19:31:09.825Z,89980.41
2023-01-19T19:33:40.774Z,89986.28
2023-01-19T19:36:09.209Z,89982.00
2023-01-19T19:38:36.727Z,89990.44
2023-01-19T19:41:08.500Z,89979.19
2023-01-19T19:43:39.219Z,89981.38
2023-01-19T19:46:09.280Z,89988.09
2023-01-19T19:48:39.232Z,89989.84
2023-01-19T19:51:17.426Z,89988.88
2023-01-19T19:53:46.042Z,89978.84
2023-01-19T19:56:15.463Z,89985.16
2023-01-19T19:58:43.412Z,89984.56
2023-01-19T20:01:16.986Z,89981.25
2023-01-19T20:03:44.448Z,89974.47
2023-01-19T20:06:17.652Z,89975.94
2023-01-19T20:08:44.811Z,89982.75
2023-01-19T20:11:14.545Z,89971.00
2023-01-19T20:13:43.393Z,89976.81
2023-01-19T20:16:12.861Z,89974.09
2023-01-19T20:18:44.626Z,89978.41
2023-01-19T20:21:17.664Z,89976.63
2023-01-19T20:23:45.832Z,89971.19
2023-01-19T20:26:14.934Z,89974.56
2023-01-19T20:28:42.296Z,89977.06
2023-01-19T20:31:14.113Z,89973.53
2023-01-19T20:33:41.605Z,89970.16
2023-01-19T20:36:09.896Z,89967.16
2023-01-19T20:38:38.157Z,89973.84
2023-01-19T20:41:05.529Z,89972.75
2023-01-19T20:43:32.758Z,89973.78
2023-01-19T20:45:59.730Z,89978.94
2023-01-19T20:48:27.147Z,89975.13
2023-01-19T20:51:02.193Z,89970.16
2023-01-19T20:53:29.975Z,89965.91
2023-01-19T20:55:56.976Z,89969.44
2023-01-19T20:58:24.274Z,89968.13
2023-01-19T21:00:51.379Z,89962.84
2023-01-19T21:03:18.225Z,89965.22
2023-01-19T21:05:47.451Z,89959.72
2023-01-19T21:08:15.114Z,89965.50
2023-01-19T21:10:43.124Z,89958.94
2023-01-19T21:13:09.921Z,89962.91
2023-01-19T21:15:36.983Z,89948.00
2023-01-19T21:18:04.064Z,89953.78
2023-01-19T21:20:31.171Z,89939.50
2023-01-19T21:22:58.120Z,89943.97
2023-01-19T21:25:25.273Z,89940.25
2023-01-19T21:27:52.309Z,89943.66
2023-01-19T21:30:19.405Z,89936.75
2023-01-19T21:32:46.288Z,89935.25
2023-01-19T21:35:13.417Z,89933.53
2023-01-19T21:37:40.506Z,89935.50
2023-01-19T21:40:08.029Z,89934.84
2023-01-19T21:42:35.368Z,89931.25
2023-01-19T21:45:02.279Z,89930.44
2023-01-19T21:47:29.274Z,89934.16
2023-01-19T21:49:56.342Z,89927.88
2023-01-19T21:52:23.183Z,89923.88
2023-01-19T21:54:50.255Z,89914.06
2023-01-19T21:57:17.136Z,89916.81
2023-01-19T21:59:44.191Z,89915.47
2023-01-19T22:02:12.564Z,89911.66
2023-01-19T22:04:39.751Z,89908.06
2023-01-19T22:07:06.948Z,89907.28
2023-01-19T22:09:34.908Z,89909.47
2023-01-19T22:12:02.284Z,89903.34
2023-01-19T22:14:29.477Z,89901.31
2023-01-19T22:16:56.643Z,89909.88
2023-01-19T22:19:23.758Z,89902.63
2023-01-19T22:21:50.687Z,89896.22
2023-01-19T22:24:17.683Z,89892.75
2023-01-19T22:26:44.749Z,89884.72
2023-01-19T22:29:12.087Z,89881.91
2023-01-19T22:31:40.228Z,89885.88
2023-01-19T22:34:07.269Z,89883.59
2023-01-19T22:36:34.173Z,89877.91
2023-01-19T22:39:06.121Z,89884.66
2023-01-19T22:41:35.765Z,89887.59
2023-01-19T22:44:06.087Z,89873.78
2023-01-19T22:46:35.842Z,89878.31
2023-01-19T22:49:03.329Z,89874.81
2023-01-19T22:51:31.711Z,89872.50
2023-01-19T22:53:58.889Z,89870.22
2023-01-19T22:56:27.693Z,89883.63
2023-01-19T22:58:56.620Z,89869.81
2023-01-19T23:01:26.383Z,89867.25
2023-01-19T23:03:54.617Z,89872.09
2023-01-19T23:06:27.177Z,89875.47
2023-01-19T23:08:59.656Z,89865.16
2023-01-19T23:11:35.706Z,89864.41
2023-01-19T23:14:04.027Z,89865.84
2023-01-19T23:16:31.175Z,89871.44
2023-01-19T23:18:58.794Z,89878.53
2023-01-19T23:21:28.015Z,89870.75
2023-01-19T23:23:56.904Z,89862.69
2023-01-19T23:26:24.927Z,89872.84
2023-01-19T23:28:56.375Z,89867.56
2023-01-19T23:31:26.074Z,89863.97
2023-01-19T23:33:55.795Z,89871.44
2023-01-19T23:36:26.694Z,89865.72
2023-01-19T23:39:07.779Z,89866.47
2023-01-19T23:41:34.746Z,89863.97
2023-01-19T23:44:02.353Z,89877.91
2023-01-19T23:46:29.771Z,89870.22
2023-01-19T23:48:57.524Z,89873.13
2023-01-19T23:51:29.763Z,89871.81
2023-01-19T23:53:58.188Z,89875.88
2023-01-19T23:56:27.986Z,89866.97
2023-01-19T23:58:59.933Z,89864.22
